sensor_id;sensor_type;location;lat;lon;timestamp;P1;durP1;ratioP1;P2;durP2;ratioP2
18818;SDS011;9537;45.594;9.294;2023-06-14T00:01:04;12.05;;;9.27;;
18818;SDS011;9537;45.594;9.294;2023-06-14T00:02:06;12.02;;;10.65;;
18818;SDS011;9537;45.594;9.294;2023-06-14T00:03:08;9.63;;;8.65;;
18818;SDS011;9537;45.594;9.294;2023-06-14T00:04:10;12.07;;;10.10;;
18818;SDS011;9537;45.594;9.294;2023-06-14T00:05:12;11.00;;;9.23;;
18818;SDS011;9537;45.594;9.294;2023-06-14T00:06:13;12.85;;;10.10;;
18818;SDS011;9537;45.594;9.294;2023-06-14T00:07:16;9.68;;;8.63;;
18818;SDS011;9537;45.594;9.294;2023-06-14T00:08:17;8.98;;;8.07;;
18818;SDS011;9537;45.594;9.294;2023-06-14T00:09:19;9.23;;;7.95;;
18818;SDS011;9537;45.594;9.294;2023-06-14T00:10:19;10.55;;;7.93;;
18818;SDS011;9537;45.594;9.294;2023-06-14T00:11:21;9.95;;;7.75;;
18818;SDS011;9537;45.594;9.294;2023-06-14T00:12:22;9.18;;;7.63;;
18818;SDS011;9537;45.594;9.294;2023-06-14T00:13:24;11.25;;;7.85;;
18818;SDS011;9537;45.594;9.294;2023-06-14T00:14:25;10.18;;;7.57;;
18818;SDS011;9537;45.594;9.294;2023-06-14T00:15:26;7.35;;;6.60;;
18818;SDS011;9537;45.594;9.294;2023-06-14T00:16:28;8.30;;;7.50;;
18818;SDS011;9537;45.594;9.294;2023-06-14T00:17:30;8.18;;;7.38;;
18818;SDS011;9537;45.594;9.294;2023-06-14T00:18:31;7.57;;;6.35;;
18818;SDS011;9537;45.594;9.294;2023-06-14T00:19:33;7.35;;;5.97;;
18818;SDS011;9537;45.594;9.294;2023-06-14T00:20:35;8.93;;;6.40;;
18818;SDS011;9537;45.594;9.294;2023-06-14T00:21:37;6.88;;;6.22;;
18818;SDS011;9537;45.594;9.294;2023-06-14T00:22:39;6.07;;;5.45;;
18818;SDS011;9537;45.594;9.294;2023-06-14T00:23:41;8.32;;;6.40;;
18818;SDS011;9537;45.594;9.294;2023-06-14T00:24:42;7.57;;;6.78;;
18818;SDS011;9537;45.594;9.294;2023-06-14T00:25:43;7.75;;;6.28;;
18818;SDS011;9537;45.594;9.294;2023-06-14T00:26:44;8.32;;;6.30;;
18818;SDS011;9537;45.594;9.294;2023-06-14T00:27:46;7.05;;;5.57;;
18818;SDS011;9537;45.594;9.294;2023-06-14T00:28:46;7.03;;;6.28;;
18818;SDS011;9537;45.594;9.294;2023-06-14T00:29:48;8.05;;;6.68;;
18818;SDS011;9537;45.594;9.294;2023-06-14T00:30:49;9.23;;;7.38;;
18818;SDS011;9537;45.594;9.294;2023-06-14T00:31:51;6.85;;;5.60;;
18818;SDS011;9537;45.594;9.294;2023-06-14T00:32:52;7.47;;;6.70;;
18818;SDS011;9537;45.594;9.294;2023-06-14T00:33:53;7.65;;;6.55;;
18818;SDS011;9537;45.594;9.294;2023-06-14T00:34:54;10.07;;;8.00;;
18818;SDS011;9537;45.594;9.294;2023-06-14T00:35:56;9.25;;;6.70;;
18818;SDS011;9537;45.594;9.294;2023-06-14T00:36:56;8.77;;;7.00;;
18818;SDS011;9537;45.594;9.294;2023-06-14T00:37:59;8.27;;;7.47;;
18818;SDS011;9537;45.594;9.294;2023-06-14T00:39:01;8.75;;;7.65;;
18818;SDS011;9537;45.594;9.294;2023-06-14T00:40:04;8.85;;;6.47;;
18818;SDS011;9537;45.594;9.294;2023-06-14T00:41:05;8.20;;;6.55;;
18818;SDS011;9537;45.594;9.294;2023-06-14T00:42:07;8.30;;;6.63;;
18818;SDS011;9537;45.594;9.294;2023-06-14T00:43:08;7.90;;;6.45;;
18818;SDS011;9537;45.594;9.294;2023-06-14T00:44:09;9.80;;;6.57;;
18818;SDS011;9537;45.594;9.294;2023-06-14T00:45:11;10.52;;;6.75;;
18818;SDS011;9537;45.594;9.294;2023-06-14T00:46:13;10.60;;;6.25;;
18818;SDS011;9537;45.594;9.294;2023-06-14T00:47:14;8.98;;;5.90;;
18818;SDS011;9537;45.594;9.294;2023-06-14T00:48:15;9.75;;;6.45;;
18818;SDS011;9537;45.594;9.294;2023-06-14T00:49:16;9.23;;;6.55;;
18818;SDS011;9537;45.594;9.294;2023-06-14T00:50:20;7.57;;;6.10;;
18818;SDS011;9537;45.594;9.294;2023-06-14T00:51:21;8.88;;;6.55;;
18818;SDS011;9537;45.594;9.294;2023-06-14T00:52:35;8.20;;;6.75;;
18818;SDS011;9537;45.594;9.294;2023-06-14T00:53:38;8.88;;;6.22;;
18818;SDS011;9537;45.594;9.294;2023-06-14T00:54:41;8.02;;;6.07;;
18818;SDS011;9537;45.594;9.294;2023-06-14T00:55:41;10.13;;;6.90;;
18818;SDS011;9537;45.594;9.294;2023-06-14T00:56:43;8.52;;;6.60;;
18818;SDS011;9537;45.594;9.294;2023-06-14T00:57:44;10.43;;;7.50;;
18818;SDS011;9537;45.594;9.294;2023-06-14T00:58:47;10.13;;;6.85;;
18818;SDS011;9537;45.594;9.294;2023-06-14T00:59:48;8.20;;;6.95;;
18818;SDS011;9537;45.594;9.294;2023-06-14T01:00:51;10.57;;;6.90;;
18818;SDS011;9537;45.594;9.294;2023-06-14T01:01:51;7.82;;;6.95;;
18818;SDS011;9537;45.594;9.294;2023-06-14T01:02:53;12.85;;;7.38;;
18818;SDS011;9537;45.594;9.294;2023-06-14T01:03:55;10.90;;;6.88;;
18818;SDS011;9537;45.594;9.294;2023-06-14T01:04:56;13.02;;;7.95;;
18818;SDS011;9537;45.594;9.294;2023-06-14T01:05:59;11.85;;;7.63;;
18818;SDS011;9537;45.594;9.294;2023-06-14T01:07:10;8.73;;;6.90;;
18818;SDS011;9537;45.594;9.294;2023-06-14T01:08:19;11.05;;;7.70;;
18818;SDS011;9537;45.594;9.294;2023-06-14T01:09:27;10.45;;;7.63;;
18818;SDS011;9537;45.594;9.294;2023-06-14T01:10:40;9.90;;;7.78;;
18818;SDS011;9537;45.594;9.294;2023-06-14T01:11:50;7.82;;;6.65;;
18818;SDS011;9537;45.594;9.294;2023-06-14T01:13:02;11.85;;;7.88;;
18818;SDS011;9537;45.594;9.294;2023-06-14T01:14:08;8.45;;;6.43;;
18818;SDS011;9537;45.594;9.294;2023-06-14T01:15:12;9.65;;;6.65;;
18818;SDS011;9537;45.594;9.294;2023-06-14T01:16:14;7.55;;;5.95;;
18818;SDS011;9537;45.594;9.294;2023-06-14T01:17:15;7.93;;;5.90;;
18818;SDS011;9537;45.594;9.294;2023-06-14T01:18:17;11.50;;;6.55;;
18818;SDS011;9537;45.594;9.294;2023-06-14T01:19:18;9.73;;;6.22;;
18818;SDS011;9537;45.594;9.294;2023-06-14T01:20:27;6.60;;;5.90;;
18818;SDS011;9537;45.594;9.294;2023-06-14T01:21:29;6.70;;;6.00;;
18818;SDS011;9537;45.594;9.294;2023-06-14T01:22:51;6.57;;;5.20;;
18818;SDS011;9537;45.594;9.294;2023-06-14T01:23:52;5.85;;;5.22;;
18818;SDS011;9537;45.594;9.294;2023-06-14T01:24:54;8.85;;;5.30;;
18818;SDS011;9537;45.594;9.294;2023-06-14T01:25:55;6.35;;;5.30;;
18818;SDS011;9537;45.594;9.294;2023-06-14T01:26:57;6.03;;;5.38;;
18818;SDS011;9537;45.594;9.294;2023-06-14T01:28:00;7.55;;;5.70;;
18818;SDS011;9537;45.594;9.294;2023-06-14T01:29:03;7.63;;;5.57;;
18818;SDS011;9537;45.594;9.294;2023-06-14T01:30:06;6.63;;;5.00;;
18818;SDS011;9537;45.594;9.294;2023-06-14T01:31:10;8.82;;;5.22;;
18818;SDS011;9537;45.594;9.294;2023-06-14T01:32:12;7.43;;;4.85;;
18818;SDS011;9537;45.594;9.294;2023-06-14T01:33:16;6.07;;;5.47;;
18818;SDS011;9537;45.594;9.294;2023-06-14T01:34:20;6.53;;;5.13;;
18818;SDS011;9537;45.594;9.294;2023-06-14T01:35:21;5.15;;;4.53;;
18818;SDS011;9537;45.594;9.294;2023-06-14T01:36:23;5.32;;;4.82;;
18818;SDS011;9537;45.594;9.294;2023-06-14T01:37:28;8.70;;;5.50;;
18818;SDS011;9537;45.594;9.294;2023-06-14T01:38:31;5.85;;;5.05;;
18818;SDS011;9537;45.594;9.294;2023-06-14T01:39:34;7.80;;;5.57;;
18818;SDS011;9537;45.594;9.294;2023-06-14T01:40:35;6.93;;;4.82;;
18818;SDS011;9537;45.594;9.294;2023-06-14T01:41:38;8.55;;;5.70;;
18818;SDS011;9537;45.594;9.294;2023-06-14T01:42:40;7.18;;;5.22;;
18818;SDS011;9537;45.594;9.294;2023-06-14T01:43:43;6.30;;;5.18;;
18818;SDS011;9537;45.594;9.294;2023-06-14T01:44:45;8.32;;;5.95;;
18818;SDS011;9537;45.594;9.294;2023-06-14T01:45:48;9.30;;;6.38;;
18818;SDS011;9537;45.594;9.294;2023-06-14T01:46:52;7.32;;;5.70;;
18818;SDS011;9537;45.594;9.294;2023-06-14T01:47:55;6.05;;;5.43;;
18818;SDS011;9537;45.594;9.294;2023-06-14T01:48:56;8.40;;;5.47;;
18818;SDS011;9537;45.594;9.294;2023-06-14T01:49:58;8.00;;;6.38;;
18818;SDS011;9537;45.594;9.294;2023-06-14T01:50:59;6.18;;;5.57;;
18818;SDS011;9537;45.594;9.294;2023-06-14T01:52:00;6.88;;;5.68;;
18818;SDS011;9537;45.594;9.294;2023-06-14T01:53:01;7.63;;;6.22;;
18818;SDS011;9537;45.594;9.294;2023-06-14T01:54:05;6.70;;;5.97;;
18818;SDS011;9537;45.594;9.294;2023-06-14T01:55:06;6.90;;;6.15;;
18818;SDS011;9537;45.594;9.294;2023-06-14T01:56:09;9.60;;;5.75;;
18818;SDS011;9537;45.594;9.294;2023-06-14T01:57:11;8.05;;;6.35;;
18818;SDS011;9537;45.594;9.294;2023-06-14T01:58:12;8.52;;;6.30;;
18818;SDS011;9537;45.594;9.294;2023-06-14T01:59:13;5.93;;;5.32;;
18818;SDS011;9537;45.594;9.294;2023-06-14T02:00:15;6.93;;;5.63;;
18818;SDS011;9537;45.594;9.294;2023-06-14T02:01:18;7.00;;;5.78;;
18818;SDS011;9537;45.594;9.294;2023-06-14T02:02:19;8.75;;;6.05;;
18818;SDS011;9537;45.594;9.294;2023-06-14T02:03:20;5.57;;;5.07;;
18818;SDS011;9537;45.594;9.294;2023-06-14T02:04:21;5.85;;;5.07;;
18818;SDS011;9537;45.594;9.294;2023-06-14T02:05:23;7.75;;;5.63;;
18818;SDS011;9537;45.594;9.294;2023-06-14T02:06:26;5.60;;;5.10;;
18818;SDS011;9537;45.594;9.294;2023-06-14T02:07:28;5.07;;;4.57;;
18818;SDS011;9537;45.594;9.294;2023-06-14T02:08:28;6.30;;;5.35;;
18818;SDS011;9537;45.594;9.294;2023-06-14T02:09:31;7.18;;;5.30;;
18818;SDS011;9537;45.594;9.294;2023-06-14T02:10:32;5.75;;;4.85;;
18818;SDS011;9537;45.594;9.294;2023-06-14T02:11:34;6.53;;;5.32;;
18818;SDS011;9537;45.594;9.294;2023-06-14T02:12:34;6.38;;;5.30;;
18818;SDS011;9537;45.594;9.294;2023-06-14T02:13:36;5.82;;;5.22;;
18818;SDS011;9537;45.594;9.294;2023-06-14T02:14:37;6.35;;;5.22;;
18818;SDS011;9537;45.594;9.294;2023-06-14T02:15:39;6.20;;;5.35;;
18818;SDS011;9537;45.594;9.294;2023-06-14T02:16:40;6.68;;;5.30;;
18818;SDS011;9537;45.594;9.294;2023-06-14T02:17:49;6.32;;;4.63;;
18818;SDS011;9537;45.594;9.294;2023-06-14T02:18:49;6.30;;;5.03;;
18818;SDS011;9537;45.594;9.294;2023-06-14T02:19:51;5.38;;;4.88;;
18818;SDS011;9537;45.594;9.294;2023-06-14T02:20:52;5.45;;;4.35;;
18818;SDS011;9537;45.594;9.294;2023-06-14T02:21:54;6.40;;;4.25;;
18818;SDS011;9537;45.594;9.294;2023-06-14T02:22:54;6.15;;;4.25;;
18818;SDS011;9537;45.594;9.294;2023-06-14T02:23:56;4.30;;;3.90;;
18818;SDS011;9537;45.594;9.294;2023-06-14T02:24:59;5.15;;;3.92;;
18818;SDS011;9537;45.594;9.294;2023-06-14T02:26:01;5.40;;;3.67;;
18818;SDS011;9537;45.594;9.294;2023-06-14T02:27:03;4.53;;;3.50;;
18818;SDS011;9537;45.594;9.294;2023-06-14T02:28:05;3.85;;;3.55;;
18818;SDS011;9537;45.594;9.294;2023-06-14T02:29:05;3.63;;;3.25;;
18818;SDS011;9537;45.594;9.294;2023-06-14T02:30:09;4.15;;;3.75;;
18818;SDS011;9537;45.594;9.294;2023-06-14T02:31:11;6.28;;;4.13;;
18818;SDS011;9537;45.594;9.294;2023-06-14T02:32:13;3.63;;;2.78;;
18818;SDS011;9537;45.594;9.294;2023-06-14T02:33:13;3.17;;;2.88;;
18818;SDS011;9537;45.594;9.294;2023-06-14T02:34:15;3.95;;;3.45;;
18818;SDS011;9537;45.594;9.294;2023-06-14T02:35:17;4.72;;;3.20;;
18818;SDS011;9537;45.594;9.294;2023-06-14T02:36:20;3.00;;;2.70;;
18818;SDS011;9537;45.594;9.294;2023-06-14T02:37:21;4.72;;;2.42;;
18818;SDS011;9537;45.594;9.294;2023-06-14T02:38:22;3.75;;;2.80;;
18818;SDS011;9537;45.594;9.294;2023-06-14T02:39:23;4.88;;;2.80;;
18818;SDS011;9537;45.594;9.294;2023-06-14T02:40:26;2.60;;;2.40;;
18818;SDS011;9537;45.594;9.294;2023-06-14T02:41:27;4.35;;;2.75;;
18818;SDS011;9537;45.594;9.294;2023-06-14T02:42:28;3.35;;;2.65;;
18818;SDS011;9537;45.594;9.294;2023-06-14T02:43:29;3.95;;;2.75;;
18818;SDS011;9537;45.594;9.294;2023-06-14T02:44:31;2.90;;;2.55;;
18818;SDS011;9537;45.594;9.294;2023-06-14T02:45:32;3.40;;;2.42;;
18818;SDS011;9537;45.594;9.294;2023-06-14T02:46:34;4.22;;;2.45;;
18818;SDS011;9537;45.594;9.294;2023-06-14T02:47:34;3.45;;;2.60;;
18818;SDS011;9537;45.594;9.294;2023-06-14T02:48:36;4.18;;;2.58;;
18818;SDS011;9537;45.594;9.294;2023-06-14T02:49:37;2.55;;;2.35;;
18818;SDS011;9537;45.594;9.294;2023-06-14T02:50:39;3.30;;;2.40;;
18818;SDS011;9537;45.594;9.294;2023-06-14T02:51:39;2.60;;;2.40;;
18818;SDS011;9537;45.594;9.294;2023-06-14T02:52:41;4.15;;;2.28;;
18818;SDS011;9537;45.594;9.294;2023-06-14T02:53:42;4.05;;;2.50;;
18818;SDS011;9537;45.594;9.294;2023-06-14T02:54:43;2.70;;;2.50;;
18818;SDS011;9537;45.594;9.294;2023-06-14T02:55:46;2.27;;;2.03;;
18818;SDS011;9537;45.594;9.294;2023-06-14T02:56:48;3.00;;;2.33;;
18818;SDS011;9537;45.594;9.294;2023-06-14T02:57:49;2.78;;;2.50;;
18818;SDS011;9537;45.594;9.294;2023-06-14T02:58:51;3.22;;;2.45;;
18818;SDS011;9537;45.594;9.294;2023-06-14T02:59:51;3.80;;;2.58;;
18818;SDS011;9537;45.594;9.294;2023-06-14T03:00:53;3.37;;;2.50;;
18818;SDS011;9537;45.594;9.294;2023-06-14T03:01:54;4.27;;;2.80;;
18818;SDS011;9537;45.594;9.294;2023-06-14T03:02:55;4.93;;;2.42;;
18818;SDS011;9537;45.594;9.294;2023-06-14T03:03:56;4.23;;;2.90;;
18818;SDS011;9537;45.594;9.294;2023-06-14T03:04:58;3.00;;;2.70;;
18818;SDS011;9537;45.594;9.294;2023-06-14T03:06:01;2.72;;;2.33;;
18818;SDS011;9537;45.594;9.294;2023-06-14T03:07:05;4.25;;;2.45;;
18818;SDS011;9537;45.594;9.294;2023-06-14T03:08:09;2.70;;;2.35;;
18818;SDS011;9537;45.594;9.294;2023-06-14T03:09:11;3.15;;;2.42;;
18818;SDS011;9537;45.594;9.294;2023-06-14T03:10:12;3.33;;;2.60;;
18818;SDS011;9537;45.594;9.294;2023-06-14T03:11:15;4.50;;;2.25;;
18818;SDS011;9537;45.594;9.294;2023-06-14T03:12:20;3.22;;;2.60;;
18818;SDS011;9537;45.594;9.294;2023-06-14T03:13:23;4.60;;;2.50;;
18818;SDS011;9537;45.594;9.294;2023-06-14T03:14:24;4.57;;;2.50;;
18818;SDS011;9537;45.594;9.294;2023-06-14T03:15:27;3.78;;;2.92;;
18818;SDS011;9537;45.594;9.294;2023-06-14T03:16:27;3.00;;;2.28;;
18818;SDS011;9537;45.594;9.294;2023-06-14T03:17:30;3.58;;;2.83;;
18818;SDS011;9537;45.594;9.294;2023-06-14T03:18:33;3.33;;;2.60;;
18818;SDS011;9537;45.594;9.294;2023-06-14T03:19:35;2.90;;;2.60;;
18818;SDS011;9537;45.594;9.294;2023-06-14T03:20:36;4.13;;;2.75;;
18818;SDS011;9537;45.594;9.294;2023-06-14T03:21:38;2.80;;;2.60;;
18818;SDS011;9537;45.594;9.294;2023-06-14T03:22:43;3.20;;;2.67;;
18818;SDS011;9537;45.594;9.294;2023-06-14T03:23:47;4.25;;;2.75;;
18818;SDS011;9537;45.594;9.294;2023-06-14T03:24:48;3.33;;;3.03;;
18818;SDS011;9537;45.594;9.294;2023-06-14T03:25:50;3.45;;;2.80;;
18818;SDS011;9537;45.594;9.294;2023-06-14T03:26:52;2.90;;;2.60;;
18818;SDS011;9537;45.594;9.294;2023-06-14T03:27:55;3.70;;;2.77;;
18818;SDS011;9537;45.594;9.294;2023-06-14T03:28:55;4.15;;;2.75;;
18818;SDS011;9537;45.594;9.294;2023-06-14T03:29:57;4.55;;;2.90;;
18818;SDS011;9537;45.594;9.294;2023-06-14T03:30:59;4.45;;;3.10;;
18818;SDS011;9537;45.594;9.294;2023-06-14T03:32:02;4.63;;;3.15;;
18818;SDS011;9537;45.594;9.294;2023-06-14T03:33:04;3.37;;;3.07;;
18818;SDS011;9537;45.594;9.294;2023-06-14T03:34:06;3.75;;;3.00;;
18818;SDS011;9537;45.594;9.294;2023-06-14T03:35:09;4.45;;;2.60;;
18818;SDS011;9537;45.594;9.294;2023-06-14T03:36:16;2.90;;;2.60;;
18818;SDS011;9537;45.594;9.294;2023-06-14T03:37:18;3.65;;;3.30;;
18818;SDS011;9537;45.594;9.294;2023-06-14T03:38:19;4.22;;;2.80;;
18818;SDS011;9537;45.594;9.294;2023-06-14T03:39:21;3.00;;;2.70;;
18818;SDS011;9537;45.594;9.294;2023-06-14T03:40:22;3.78;;;2.72;;
18818;SDS011;9537;45.594;9.294;2023-06-14T03:41:26;3.22;;;2.90;;
18818;SDS011;9537;45.594;9.294;2023-06-14T03:42:28;3.47;;;3.15;;
18818;SDS011;9537;45.594;9.294;2023-06-14T03:43:30;3.20;;;2.77;;
18818;SDS011;9537;45.594;9.294;2023-06-14T03:44:31;3.47;;;2.70;;
18818;SDS011;9537;45.594;9.294;2023-06-14T03:45:33;3.55;;;3.03;;
18818;SDS011;9537;45.594;9.294;2023-06-14T03:46:33;4.33;;;2.93;;
18818;SDS011;9537;45.594;9.294;2023-06-14T03:47:35;3.40;;;3.10;;
18818;SDS011;9537;45.594;9.294;2023-06-14T03:48:36;4.70;;;2.72;;
18818;SDS011;9537;45.594;9.294;2023-06-14T03:49:38;4.10;;;3.00;;
18818;SDS011;9537;45.594;9.294;2023-06-14T03:50:40;3.60;;;3.10;;
18818;SDS011;9537;45.594;9.294;2023-06-14T03:51:43;6.10;;;3.08;;
18818;SDS011;9537;45.594;9.294;2023-06-14T03:52:45;4.05;;;2.75;;
18818;SDS011;9537;45.594;9.294;2023-06-14T03:53:48;3.43;;;2.60;;
18818;SDS011;9537;45.594;9.294;2023-06-14T03:54:50;2.60;;;2.40;;
18818;SDS011;9537;45.594;9.294;2023-06-14T03:55:51;3.00;;;2.60;;
18818;SDS011;9537;45.594;9.294;2023-06-14T03:56:54;3.08;;;2.47;;
18818;SDS011;9537;45.594;9.294;2023-06-14T03:57:58;4.78;;;2.50;;
18818;SDS011;9537;45.594;9.294;2023-06-14T03:59:00;4.40;;;2.90;;
18818;SDS011;9537;45.594;9.294;2023-06-14T04:00:01;3.38;;;2.33;;
18818;SDS011;9537;45.594;9.294;2023-06-14T04:01:05;2.78;;;2.40;;
18818;SDS011;9537;45.594;9.294;2023-06-14T04:02:07;2.43;;;2.13;;
18818;SDS011;9537;45.594;9.294;2023-06-14T04:03:09;3.85;;;2.63;;
18818;SDS011;9537;45.594;9.294;2023-06-14T04:04:10;3.35;;;2.85;;
18818;SDS011;9537;45.594;9.294;2023-06-14T04:05:12;3.22;;;2.65;;
18818;SDS011;9537;45.594;9.294;2023-06-14T04:06:13;2.88;;;2.40;;
18818;SDS011;9537;45.594;9.294;2023-06-14T04:07:20;3.28;;;2.50;;
18818;SDS011;9537;45.594;9.294;2023-06-14T04:08:21;3.08;;;2.78;;
18818;SDS011;9537;45.594;9.294;2023-06-14T04:09:23;3.00;;;2.25;;
18818;SDS011;9537;45.594;9.294;2023-06-14T04:10:24;3.77;;;2.97;;
18818;SDS011;9537;45.594;9.294;2023-06-14T04:11:26;4.00;;;2.70;;
18818;SDS011;9537;45.594;9.294;2023-06-14T04:12:27;5.80;;;2.77;;
18818;SDS011;9537;45.594;9.294;2023-06-14T04:13:30;2.40;;;2.20;;
18818;SDS011;9537;45.594;9.294;2023-06-14T04:14:31;3.03;;;2.83;;
18818;SDS011;9537;45.594;9.294;2023-06-14T04:15:33;3.92;;;2.80;;
18818;SDS011;9537;45.594;9.294;2023-06-14T04:16:34;2.75;;;2.50;;
18818;SDS011;9537;45.594;9.294;2023-06-14T04:17:36;2.83;;;2.55;;
18818;SDS011;9537;45.594;9.294;2023-06-14T04:18:37;3.33;;;2.60;;
18818;SDS011;9537;45.594;9.294;2023-06-14T04:19:39;3.10;;;2.70;;
18818;SDS011;9537;45.594;9.294;2023-06-14T04:20:39;4.27;;;2.60;;
18818;SDS011;9537;45.594;9.294;2023-06-14T04:21:41;2.73;;;2.50;;
18818;SDS011;9537;45.594;9.294;2023-06-14T04:22:43;3.73;;;2.90;;
18818;SDS011;9537;45.594;9.294;2023-06-14T04:23:44;4.23;;;2.43;;
18818;SDS011;9537;45.594;9.294;2023-06-14T04:24:45;2.80;;;2.30;;
18818;SDS011;9537;45.594;9.294;2023-06-14T04:25:47;5.75;;;2.63;;
18818;SDS011;9537;45.594;9.294;2023-06-14T04:26:49;2.70;;;2.40;;
18818;SDS011;9537;45.594;9.294;2023-06-14T04:27:51;3.22;;;2.78;;
18818;SDS011;9537;45.594;9.294;2023-06-14T04:28:53;3.88;;;2.22;;
18818;SDS011;9537;45.594;9.294;2023-06-14T04:29:56;3.92;;;2.70;;
18818;SDS011;9537;45.594;9.294;2023-06-14T04:30:58;2.92;;;2.40;;
18818;SDS011;9537;45.594;9.294;2023-06-14T04:32:01;6.27;;;2.90;;
18818;SDS011;9537;45.594;9.294;2023-06-14T04:33:02;4.30;;;2.97;;
18818;SDS011;9537;45.594;9.294;2023-06-14T04:34:05;3.78;;;3.00;;
18818;SDS011;9537;45.594;9.294;2023-06-14T04:35:07;4.20;;;2.83;;
18818;SDS011;9537;45.594;9.294;2023-06-14T04:36:09;2.90;;;2.50;;
18818;SDS011;9537;45.594;9.294;2023-06-14T04:37:11;3.22;;;2.90;;
18818;SDS011;9537;45.594;9.294;2023-06-14T04:38:13;3.20;;;2.60;;
18818;SDS011;9537;45.594;9.294;2023-06-14T04:39:16;3.20;;;2.83;;
18818;SDS011;9537;45.594;9.294;2023-06-14T04:40:17;4.32;;;2.67;;
18818;SDS011;9537;45.594;9.294;2023-06-14T04:41:20;3.10;;;2.80;;
18818;SDS011;9537;45.594;9.294;2023-06-14T04:42:22;2.88;;;2.60;;
18818;SDS011;9537;45.594;9.294;2023-06-14T04:43:25;3.80;;;2.63;;
18818;SDS011;9537;45.594;9.294;2023-06-14T04:44:29;4.22;;;2.58;;
18818;SDS011;9537;45.594;9.294;2023-06-14T04:45:31;2.95;;;2.40;;
18818;SDS011;9537;45.594;9.294;2023-06-14T04:46:32;3.20;;;2.80;;
18818;SDS011;9537;45.594;9.294;2023-06-14T04:47:46;2.97;;;2.53;;
18818;SDS011;9537;45.594;9.294;2023-06-14T04:48:46;3.07;;;2.77;;
18818;SDS011;9537;45.594;9.294;2023-06-14T04:49:50;3.87;;;2.90;;
18818;SDS011;9537;45.594;9.294;2023-06-14T04:50:53;2.90;;;2.67;;
18818;SDS011;9537;45.594;9.294;2023-06-14T04:51:56;7.37;;;3.20;;
18818;SDS011;9537;45.594;9.294;2023-06-14T04:53:01;3.70;;;2.53;;
18818;SDS011;9537;45.594;9.294;2023-06-14T04:54:03;2.92;;;2.63;;
18818;SDS011;9537;45.594;9.294;2023-06-14T04:55:05;3.30;;;2.60;;
18818;SDS011;9537;45.594;9.294;2023-06-14T04:56:07;3.47;;;3.00;;
18818;SDS011;9537;45.594;9.294;2023-06-14T04:57:08;2.83;;;2.57;;
18818;SDS011;9537;45.594;9.294;2023-06-14T04:58:14;2.90;;;2.60;;
18818;SDS011;9537;45.594;9.294;2023-06-14T04:59:15;2.90;;;2.60;;
18818;SDS011;9537;45.594;9.294;2023-06-14T05:00:19;2.58;;;2.38;;
18818;SDS011;9537;45.594;9.294;2023-06-14T05:01:20;2.80;;;2.60;;
18818;SDS011;9537;45.594;9.294;2023-06-14T05:02:23;2.70;;;2.50;;
18818;SDS011;9537;45.594;9.294;2023-06-14T05:03:24;3.45;;;2.70;;
18818;SDS011;9537;45.594;9.294;2023-06-14T05:04:27;2.83;;;2.63;;
18818;SDS011;9537;45.594;9.294;2023-06-14T05:05:28;3.80;;;2.53;;
18818;SDS011;9537;45.594;9.294;2023-06-14T05:06:29;3.40;;;2.70;;
18818;SDS011;9537;45.594;9.294;2023-06-14T05:07:30;2.47;;;2.28;;
18818;SDS011;9537;45.594;9.294;2023-06-14T05:08:33;3.83;;;2.43;;
18818;SDS011;9537;45.594;9.294;2023-06-14T05:09:34;3.25;;;2.63;;
18818;SDS011;9537;45.594;9.294;2023-06-14T05:10:36;3.25;;;2.50;;
18818;SDS011;9537;45.594;9.294;2023-06-14T05:11:36;3.85;;;2.60;;
18818;SDS011;9537;45.594;9.294;2023-06-14T05:12:38;5.15;;;2.53;;
18818;SDS011;9537;45.594;9.294;2023-06-14T05:13:39;2.88;;;2.40;;
18818;SDS011;9537;45.594;9.294;2023-06-14T05:14:41;2.97;;;2.70;;
18818;SDS011;9537;45.594;9.294;2023-06-14T05:15:43;4.93;;;2.80;;
18818;SDS011;9537;45.594;9.294;2023-06-14T05:16:45;3.43;;;2.50;;
18818;SDS011;9537;45.594;9.294;2023-06-14T05:17:46;3.83;;;2.30;;
18818;SDS011;9537;45.594;9.294;2023-06-14T05:18:53;2.53;;;2.33;;
18818;SDS011;9537;45.594;9.294;2023-06-14T05:19:54;3.87;;;2.67;;
18818;SDS011;9537;45.594;9.294;2023-06-14T05:20:56;2.53;;;2.33;;
18818;SDS011;9537;45.594;9.294;2023-06-14T05:21:57;5.57;;;2.63;;
18818;SDS011;9537;45.594;9.294;2023-06-14T05:22:58;2.97;;;2.67;;
18818;SDS011;9537;45.594;9.294;2023-06-14T05:24:00;3.58;;;2.40;;
18818;SDS011;9537;45.594;9.294;2023-06-14T05:25:00;3.00;;;2.10;;
18818;SDS011;9537;45.594;9.294;2023-06-14T05:26:02;2.78;;;2.30;;
18818;SDS011;9537;45.594;9.294;2023-06-14T05:27:04;2.63;;;2.42;;
18818;SDS011;9537;45.594;9.294;2023-06-14T05:28:07;3.90;;;2.30;;
18818;SDS011;9537;45.594;9.294;2023-06-14T05:29:07;2.63;;;2.43;;
18818;SDS011;9537;45.594;9.294;2023-06-14T05:30:10;3.42;;;2.38;;
18818;SDS011;9537;45.594;9.294;2023-06-14T05:31:12;2.97;;;2.10;;
18818;SDS011;9537;45.594;9.294;2023-06-14T05:32:14;3.13;;;2.60;;
18818;SDS011;9537;45.594;9.294;2023-06-14T05:33:15;2.95;;;2.17;;
18818;SDS011;9537;45.594;9.294;2023-06-14T05:34:17;2.97;;;2.45;;
18818;SDS011;9537;45.594;9.294;2023-06-14T05:35:17;2.47;;;2.28;;
18818;SDS011;9537;45.594;9.294;2023-06-14T05:36:19;3.90;;;2.30;;
18818;SDS011;9537;45.594;9.294;2023-06-14T05:37:21;2.53;;;2.30;;
18818;SDS011;9537;45.594;9.294;2023-06-14T05:38:22;2.95;;;2.30;;
18818;SDS011;9537;45.594;9.294;2023-06-14T05:39:23;5.13;;;2.63;;
18818;SDS011;9537;45.594;9.294;2023-06-14T05:40:25;5.00;;;2.40;;
18818;SDS011;9537;45.594;9.294;2023-06-14T05:41:26;3.23;;;2.07;;
18818;SDS011;9537;45.594;9.294;2023-06-14T05:42:27;4.22;;;2.08;;
18818;SDS011;9537;45.594;9.294;2023-06-14T05:43:28;3.83;;;2.13;;
18818;SDS011;9537;45.594;9.294;2023-06-14T05:44:30;2.53;;;2.25;;
18818;SDS011;9537;45.594;9.294;2023-06-14T05:45:31;2.35;;;2.15;;
18818;SDS011;9537;45.594;9.294;2023-06-14T05:46:33;2.50;;;2.30;;
18818;SDS011;9537;45.594;9.294;2023-06-14T05:47:35;2.50;;;2.00;;
18818;SDS011;9537;45.594;9.294;2023-06-14T05:48:36;3.90;;;2.17;;
18818;SDS011;9537;45.594;9.294;2023-06-14T05:49:37;2.30;;;2.10;;
18818;SDS011;9537;45.594;9.294;2023-06-14T05:50:38;2.28;;;2.08;;
18818;SDS011;9537;45.594;9.294;2023-06-14T05:51:40;3.55;;;2.50;;
18818;SDS011;9537;45.594;9.294;2023-06-14T05:52:40;3.00;;;2.50;;
18818;SDS011;9537;45.594;9.294;2023-06-14T05:53:42;2.83;;;2.50;;
18818;SDS011;9537;45.594;9.294;2023-06-14T05:54:42;3.77;;;2.97;;
18818;SDS011;9537;45.594;9.294;2023-06-14T05:55:44;3.00;;;2.70;;
18818;SDS011;9537;45.594;9.294;2023-06-14T05:56:45;4.40;;;2.83;;
18818;SDS011;9537;45.594;9.294;2023-06-14T05:57:46;5.47;;;3.20;;
18818;SDS011;9537;45.594;9.294;2023-06-14T05:58:48;5.65;;;3.00;;
18818;SDS011;9537;45.594;9.294;2023-06-14T05:59:50;4.47;;;3.37;;
18818;SDS011;9537;45.594;9.294;2023-06-14T06:00:51;4.80;;;3.00;;
18818;SDS011;9537;45.594;9.294;2023-06-14T06:01:55;3.47;;;2.97;;
18818;SDS011;9537;45.594;9.294;2023-06-14T06:02:55;4.20;;;3.80;;
18818;SDS011;9537;45.594;9.294;2023-06-14T06:03:58;3.40;;;3.08;;
18818;SDS011;9537;45.594;9.294;2023-06-14T06:04:58;4.38;;;3.38;;
18818;SDS011;9537;45.594;9.294;2023-06-14T06:06:00;3.97;;;3.42;;
18818;SDS011;9537;45.594;9.294;2023-06-14T06:07:01;6.15;;;3.75;;
18818;SDS011;9537;45.594;9.294;2023-06-14T06:08:04;5.13;;;3.77;;
18818;SDS011;9537;45.594;9.294;2023-06-14T06:09:04;4.50;;;3.95;;
18818;SDS011;9537;45.594;9.294;2023-06-14T06:10:07;4.75;;;3.67;;
18818;SDS011;9537;45.594;9.294;2023-06-14T06:11:08;4.60;;;4.10;;
18818;SDS011;9537;45.594;9.294;2023-06-14T06:12:10;5.40;;;4.30;;
18818;SDS011;9537;45.594;9.294;2023-06-14T06:13:11;5.32;;;4.75;;
18818;SDS011;9537;45.594;9.294;2023-06-14T06:14:13;4.20;;;3.80;;
18818;SDS011;9537;45.594;9.294;2023-06-14T06:15:13;5.97;;;5.23;;
18818;SDS011;9537;45.594;9.294;2023-06-14T06:16:16;5.20;;;4.70;;
18818;SDS011;9537;45.594;9.294;2023-06-14T06:17:19;4.60;;;4.18;;
18818;SDS011;9537;45.594;9.294;2023-06-14T06:18:19;5.80;;;5.15;;
18818;SDS011;9537;45.594;9.294;2023-06-14T06:19:21;5.57;;;4.35;;
18818;SDS011;9537;45.594;9.294;2023-06-14T06:20:22;5.72;;;4.47;;